createdAt,value
2023-03-29T00:00:32.780Z,1.27
2023-03-29T00:03:06.518Z,1.75
2023-03-29T00:05:39.257Z,1.75
2023-03-29T00:08:08.399Z,1.83
2023-03-29T00:10:38.961Z,1.50
2023-03-29T00:13:09.560Z,1.48
2023-03-29T00:15:49.916Z,1.65
2023-03-29T00:18:21.740Z,1.50
2023-03-29T00:21:00.246Z,1.20
2023-03-29T00:23:30.927Z,1.60
2023-03-29T00:25:58.646Z,1.17
2023-03-29T00:28:27.196Z,1.40
2023-03-29T00:30:57.707Z,1.30
2023-03-29T00:36:21.941Z,1.55
2023-03-29T00:38:50.081Z,1.23
2023-03-29T00:41:17.606Z,1.02
2023-03-29T00:44:00.215Z,1.52
2023-03-29T00:46:35.317Z,1.60
2023-03-29T00:49:10.208Z,1.30
2023-03-29T00:51:42.271Z,1.67
2023-03-29T00:54:33.849Z,1.23
2023-03-29T00:57:05.432Z,1.40
2023-03-29T00:59:41.406Z,1.50
2023-03-29T01:02:18.107Z,1.70
2023-03-29T01:04:48.020Z,1.00
2023-03-29T01:07:46.281Z,1.48
2023-03-29T01:10:41.983Z,1.80
2023-03-29T01:15:47.258Z,1.40
2023-03-29T01:18:19.374Z,1.55
2023-03-29T01:21:31.802Z,1.30
2023-03-29T01:24:47.340Z,1.65
2023-03-29T01:27:30.106Z,1.20
2023-03-29T01:30:06.790Z,1.40
2023-03-29T01:32:47.523Z,1.45
2023-03-29T01:35:53.072Z,1.15
2023-03-29T01:38:43.410Z,1.77
2023-03-29T01:41:12.362Z,1.30
2023-03-29T01:43:53.605Z,1.20
2023-03-29T01:46:46.677Z,1.20
2023-03-29T01:49:35.504Z,1.10
2023-03-29T01:52:26.287Z,1.70
2023-03-29T01:55:01.441Z,1.75
2023-03-29T01:57:38.099Z,1.13
2023-03-29T02:00:10.287Z,1.45
2023-03-29T02:02:41.892Z,1.42
2023-03-29T02:05:14.237Z,1.30
2023-03-29T02:07:44.706Z,1.38
2023-03-29T02:10:15.117Z,1.50
2023-03-29T02:12:43.739Z,1.40
2023-03-29T02:15:20.450Z,1.10
2023-03-29T02:17:51.380Z,1.83
2023-03-29T02:20:43.994Z,1.60
2023-03-29T02:23:53.288Z,1.33
2023-03-29T02:26:26.326Z,1.45
2023-03-29T02:28:54.386Z,1.50
2023-03-29T02:31:32.097Z,1.70
2023-03-29T02:34:18.432Z,1.42
2023-03-29T02:36:51.887Z,1.35
2023-03-29T02:39:20.407Z,1.90
2023-03-29T02:41:52.402Z,1.75
2023-03-29T02:44:24.468Z,1.77
2023-03-29T02:46:58.504Z,1.50
2023-03-29T02:49:26.198Z,1.85
2023-03-29T02:52:00.856Z,1.80
2023-03-29T02:54:32.300Z,1.92
2023-03-29T02:57:06.650Z,1.70
2023-03-29T02:59:34.914Z,1.55
2023-03-29T03:02:07.357Z,1.73
2023-03-29T03:04:35.848Z,2.30
2023-03-29T03:07:05.556Z,1.80
2023-03-29T03:09:32.985Z,1.70
2023-03-29T03:12:01.560Z,1.67
2023-03-29T03:14:29.608Z,1.42
2023-03-29T03:17:02.397Z,1.85
2023-03-29T03:19:32.187Z,1.80
2023-03-29T03:22:04.687Z,1.63
2023-03-29T03:24:32.929Z,1.35
2023-03-29T03:27:00.555Z,2.03
2023-03-29T03:29:29.106Z,1.90
2023-03-29T03:32:15.627Z,1.90
2023-03-29T03:35:12.131Z,1.75
2023-03-29T03:37:45.005Z,1.70
2023-03-29T03:40:14.090Z,2.00
2023-03-29T03:42:42.629Z,1.90
2023-03-29T03:45:10.970Z,1.70
2023-03-29T03:48:00.909Z,1.83
2023-03-29T03:50:58.483Z,1.60
2023-03-29T03:53:33.890Z,2.15
2023-03-29T03:56:17.948Z,1.85
2023-03-29T03:59:10.503Z,2.00
2023-03-29T04:02:21.316Z,1.85
2023-03-29T04:04:49.522Z,1.73
2023-03-29T04:07:21.232Z,1.58
2023-03-29T04:10:12.241Z,2.00
2023-03-29T04:12:53.477Z,2.25
2023-03-29T04:15:22.820Z,2.10
2023-03-29T04:18:00.349Z,1.65
2023-03-29T04:20:33.804Z,1.80
2023-03-29T04:23:02.050Z,1.98
2023-03-29T04:25:31.297Z,1.90
2023-03-29T04:27:58.481Z,1.67
2023-03-29T04:30:50.062Z,1.83
2023-03-29T04:33:30.654Z,2.08
2023-03-29T04:36:01.831Z,2.10
2023-03-29T04:38:57.861Z,2.15
2023-03-29T04:41:35.629Z,1.80
2023-03-29T04:44:07.505Z,2.40
2023-03-29T04:46:35.541Z,2.10
2023-03-29T04:49:20.508Z,2.23
2023-03-29T04:51:56.793Z,1.60
2023-03-29T04:54:33.163Z,1.85
2023-03-29T04:57:18.971Z,2.20
2023-03-29T05:00:00.426Z,1.98
2023-03-29T05:03:00.217Z,1.88
2023-03-29T05:05:31.096Z,2.22
2023-03-29T05:08:04.336Z,2.05
2023-03-29T05:10:45.686Z,2.13
2023-03-29T05:13:18.086Z,2.65
2023-03-29T05:15:47.929Z,2.17
2023-03-29T05:18:15.689Z,2.20
2023-03-29T05:20:53.521Z,2.30
2023-03-29T05:23:27.001Z,2.22
2023-03-29T05:26:15.726Z,2.20
2023-03-29T05:28:51.638Z,2.22
2023-03-29T05:31:20.941Z,2.35
2023-03-29T05:33:54.383Z,1.90
2023-03-29T05:36:23.847Z,2.90
2023-03-29T05:38:59.985Z,2.22
2023-03-29T05:41:39.745Z,2.10
2023-03-29T05:44:33.647Z,2.55
2023-03-29T05:47:13.815Z,2.08
2023-03-29T05:49:44.021Z,2.15
2023-03-29T05:52:16.791Z,2.38
2023-03-29T05:54:51.915Z,2.67
2023-03-29T05:57:20.513Z,2.42
2023-03-29T05:59:48.506Z,2.20
2023-03-29T06:02:27.253Z,2.10
2023-03-29T06:04:57.668Z,1.85
2023-03-29T06:07:26.383Z,2.75
2023-03-29T06:10:25.036Z,2.50
2023-03-29T06:13:01.093Z,2.22
2023-03-29T06:15:50.491Z,2.20
2023-03-29T06:18:29.904Z,2.25
2023-03-29T06:21:04.177Z,2.20
2023-03-29T06:23:36.312Z,2.35
2023-03-29T06:26:05.203Z,2.25
2023-03-29T06:28:36.541Z,2.25
2023-03-29T06:31:05.917Z,2.38
2023-03-29T06:33:43.393Z,1.90
2023-03-29T06:36:34.933Z,2.13
2023-03-29T06:39:08.759Z,1.80
2023-03-29T06:42:05.216Z,2.40
2023-03-29T06:45:01.722Z,2.10
2023-03-29T06:47:31.713Z,2.13
2023-03-29T06:50:01.813Z,2.10
2023-03-29T06:52:49.452Z,2.28
2023-03-29T06:55:27.546Z,2.00
2023-03-29T06:58:02.224Z,1.95
2023-03-29T07:00:37.330Z,2.22
2023-03-29T07:03:23.678Z,1.88
2023-03-29T07:06:13.300Z,2.22
2023-03-29T07:08:46.982Z,2.13
2023-03-29T07:11:47.157Z,2.45
2023-03-29T07:14:27.393Z,2.15
2023-03-29T07:16:56.206Z,2.42
2023-03-29T07:19:38.343Z,2.00
2023-03-29T07:22:17.531Z,1.67
2023-03-29T07:24:52.995Z,1.90
2023-03-29T07:27:26.936Z,2.15
2023-03-29T07:29:54.810Z,2.38
2023-03-29T07:32:23.151Z,2.22
2023-03-29T07:35:00.107Z,2.22
2023-03-29T07:37:43.285Z,2.00
2023-03-29T07:40:23.153Z,2.33
2023-03-29T07:43:04.404Z,2.13
2023-03-29T07:45:39.717Z,2.20
2023-03-29T07:48:14.286Z,2.08
2023-03-29T07:50:49.390Z,1.58
2023-03-29T07:53:25.015Z,2.70
2023-03-29T07:55:59.226Z,1.95
2023-03-29T07:58:50.952Z,2.00
2023-03-29T08:01:27.932Z,2.25
2023-03-29T08:04:01.227Z,2.30
2023-03-29T08:06:50.366Z,2.40
2023-03-29T08:09:18.771Z,2.25
2023-03-29T08:11:46.115Z,2.00
2023-03-29T08:14:22.318Z,2.58
2023-03-29T08:17:01.396Z,2.67
2023-03-29T08:19:31.146Z,2.20
2023-03-29T08:25:10.482Z,2.10
2023-03-29T08:27:53.067Z,3.33
2023-03-29T08:30:43.489Z,2.25
2023-03-29T08:33:10.988Z,2.45
2023-03-29T08:35:39.367Z,2.40
2023-03-29T08:38:17.972Z,2.25
2023-03-29T08:40:49.456Z,2.85
2023-03-29T08:43:44.734Z,2.35
2023-03-29T08:47:02.299Z,2.28
2023-03-29T08:49:39.455Z,2.10
2023-03-29T08:52:21.763Z,2.17
2023-03-29T08:54:55.006Z,2.33
2023-03-29T08:57:45.880Z,2.55
2023-03-29T09:00:53.301Z,2.03
2023-03-29T09:03:28.943Z,2.03
2023-03-29T09:06:14.373Z,2.17
2023-03-29T09:08:45.303Z,2.17
2023-03-29T09:11:28.355Z,2.20
2023-03-29T09:14:30.823Z,2.28
2023-03-29T09:20:02.088Z,2.40
2023-03-29T09:22:50.866Z,2.53
2023-03-29T09:26:22.810Z,2.67
2023-03-29T09:30:00.579Z,3.03
2023-03-29T09:32:54.292Z,2.72
2023-03-29T09:35:43.637Z,2.78
2023-03-29T09:38:26.877Z,2.97
2023-03-29T09:40:59.873Z,3.20
2023-03-29T09:46:17.213Z,2.85
2023-03-29T09:48:47.430Z,2.97
2023-03-29T09:51:16.468Z,2.20
2023-03-29T09:53:43.694Z,2.92
2023-03-29T09:56:29.365Z,2.85
2023-03-29T09:59:12.607Z,2.72
2023-03-29T10:04:56.419Z,2.97
2023-03-29T10:07:23.932Z,2.50
2023-03-29T10:09:58.460Z,3.08
2023-03-29T10:12:26.016Z,2.88
2023-03-29T10:14:54.755Z,2.80
2023-03-29T10:17:45.642Z,2.47
2023-03-29T10:20:24.813Z,3.08
2023-03-29T10:22:59.277Z,2.90
2023-03-29T10:25:59.788Z,2.38
2023-03-29T10:28:28.077Z,2.72
2023-03-29T10:30:57.939Z,3.00
2023-03-29T10:33:30.750Z,2.63
2023-03-29T10:35:58.651Z,2.33
2023-03-29T10:38:30.189Z,2.67
2023-03-29T10:41:06.550Z,2.30
2023-03-29T10:43:51.527Z,2.10
2023-03-29T10:46:47.986Z,2.45
2023-03-29T10:49:19.805Z,2.25
2023-03-29T10:51:51.934Z,2.30
2023-03-29T10:54:23.372Z,3.00
2023-03-29T10:56:57.034Z,2.65
2023-03-29T10:59:31.687Z,2.42
2023-03-29T11:02:14.396Z,2.90
2023-03-29T11:04:52.628Z,2.40
2023-03-29T11:07:32.411Z,2.30
2023-03-29T11:10:14.819Z,2.75
2023-03-29T11:15:34.034Z,2.35
2023-03-29T11:18:08.268Z,1.85
2023-03-29T11:21:08.511Z,1.90
2023-03-29T11:24:04.297Z,1.70
2023-03-29T11:26:36.814Z,1.95
2023-03-29T11:29:17.242Z,1.98
2023-03-29T11:31:54.049Z,1.83
2023-03-29T11:34:53.125Z,2.20
2023-03-29T11:37:38.561Z,1.30
2023-03-29T11:40:15.342Z,1.95
2023-03-29T11:42:49.591Z,1.90
2023-03-29T11:45:30.630Z,1.70
2023-03-29T11:48:02.813Z,1.60
2023-03-29T11:50:39.261Z,1.98
2023-03-29T11:53:13.736Z,1.45
2023-03-29T11:55:42.474Z,1.40
2023-03-29T11:58:18.774Z,1.50
2023-03-29T12:00:55.836Z,1.98
2023-03-29T12:03:51.723Z,1.88
2023-03-29T12:06:37.846Z,1.63
2023-03-29T12:09:09.405Z,1.58
2023-03-29T12:11:54.599Z,1.48
2023-03-29T12:14:35.496Z,1.60
2023-03-29T12:17:08.937Z,1.73
2023-03-29T12:19:49.115Z,1.88
2023-03-29T12:22:16.932Z,1.67
2023-03-29T12:24:50.664Z,1.45
2023-03-29T12:27:20.883Z,1.83
2023-03-29T12:30:02.747Z,1.58
2023-03-29T12:32:36.301Z,1.80
2023-03-29T12:35:37.955Z,1.60
2023-03-29T12:38:31.899Z,1.90
2023-03-29T12:41:23.469Z,2.30
2023-03-29T12:44:16.750Z,1.90
2023-03-29T12:47:00.405Z,1.63
2023-03-29T12:49:33.087Z,1.63
2023-03-29T12:52:03.766Z,1.70
2023-03-29T12:54:34.177Z,1.98
2023-03-29T12:57:26.199Z,1.52
2023-03-29T12:59:54.052Z,1.50
2023-03-29T13:02:37.396Z,1.48
2023-03-29T13:05:27.898Z,1.42
2023-03-29T13:07:59.381Z,1.00
2023-03-29T13:10:39.665Z,1.10
2023-03-29T13:13:18.849Z,1.13
2023-03-29T13:15:46.611Z,1.38
2023-03-29T13:18:34.273Z,1.10
2023-03-29T13:21:16.189Z,1.08
2023-03-29T13:24:00.315Z,1.27
2023-03-29T13:26:53.842Z,1.13
2023-03-29T13:29:35.767Z,1.17
2023-03-29T13:32:28.489Z,1.20
2023-03-29T13:37:47.177Z,1.08
2023-03-29T13:40:43.130Z,1.30
2023-03-29T13:43:23.134Z,1.10
2023-03-29T13:45:59.390Z,1.42
2023-03-29T13:48:33.761Z,1.35
2023-03-29T13:51:08.406Z,1.63
2023-03-29T13:53:42.160Z,1.38
2023-03-29T13:56:26.715Z,1.20
2023-03-29T13:59:12.255Z,1.17
2023-03-29T14:01:49.478Z,1.30
2023-03-29T14:04:27.913Z,1.35
2023-03-29T14:06:56.806Z,1.55
2023-03-29T14:09:30.109Z,1.23
2023-03-29T14:11:59.822Z,1.67
2023-03-29T14:14:29.749Z,1.17
2023-03-29T14:16:57.392Z,1.20
2023-03-29T14:19:34.664Z,1.23
2023-03-29T14:22:03.403Z,1.27
2023-03-29T14:24:48.199Z,1.10
2023-03-29T14:27:16.799Z,1.10
2023-03-29T14:29:49.290Z,1.20
2023-03-29T14:32:20.158Z,0.90
2023-03-29T14:34:51.126Z,1.33
2023-03-29T14:37:26.868Z,1.15
2023-03-29T14:39:54.691Z,0.80
2023-03-29T14:42:26.998Z,0.80
2023-03-29T14:45:04.896Z,1.02
2023-03-29T14:47:35.546Z,1.02
2023-03-29T14:50:04.050Z,0.73
2023-03-29T14:52:32.150Z,1.02
2023-03-29T14:55:02.616Z,1.02
2023-03-29T14:57:37.529Z,1.10
2023-03-29T15:00:22.540Z,1.00
2023-03-29T15:03:14.481Z,0.85
2023-03-29T15:05:44.245Z,0.98
2023-03-29T15:08:29.465Z,1.15
2023-03-29T15:10:56.965Z,0.80
2023-03-29T15:13:25.548Z,1.20
2023-03-29T15:16:05.841Z,0.98
2023-03-29T15:18:40.212Z,1.77
2023-03-29T15:21:08.860Z,0.95
2023-03-29T15:24:01.181Z,1.33
2023-03-29T15:26:32.459Z,1.65
2023-03-29T15:29:23.428Z,1.00
2023-03-29T15:32:00.060Z,1.30
2023-03-29T15:34:29.766Z,1.55
2023-03-29T15:37:00.283Z,1.70
2023-03-29T15:39:29.859Z,1.17
2023-03-29T15:41:58.083Z,1.83
2023-03-29T15:44:32.452Z,1.55
2023-03-29T15:47:00.633Z,1.45
2023-03-29T15:49:28.816Z,1.25
2023-03-29T15:51:55.769Z,1.30
2023-03-29T15:54:25.030Z,1.55
2023-03-29T15:56:55.683Z,1.52
2023-03-29T15:59:26.220Z,1.83
2023-03-29T16:01:54.657Z,1.55
2023-03-29T16:04:22.391Z,1.60
2023-03-29T16:06:54.015Z,1.60
2023-03-29T16:09:22.571Z,1.92
2023-03-29T16:11:50.340Z,1.50
2023-03-29T16:14:27.821Z,1.70
2023-03-29T16:16:55.731Z,1.58
2023-03-29T16:19:23.360Z,2.20
2023-03-29T16:21:50.929Z,2.28
2023-03-29T16:24:20.273Z,2.05
2023-03-29T16:26:48.327Z,2.00
2023-03-29T16:29:20.405Z,1.88
2023-03-29T16:31:49.285Z,1.73
2023-03-29T16:34:18.903Z,1.73
2023-03-29T16:36:47.643Z,2.10
2023-03-29T16:39:15.250Z,1.98
2023-03-29T16:41:43.476Z,2.00
2023-03-29T16:44:17.135Z,2.40
2023-03-29T16:46:44.926Z,3.10
2023-03-29T16:49:18.403Z,3.50
2023-03-29T16:51:49.042Z,2.20
2023-03-29T16:54:17.365Z,2.13
2023-03-29T16:56:44.641Z,2.13
2023-03-29T16:59:13.178Z,2.10
2023-03-29T17:01:40.965Z,2.25
2023-03-29T17:04:08.608Z,1.92
2023-03-29T17:06:36.073Z,2.33
2023-03-29T17:09:05.150Z,2.17
2023-03-29T17:11:32.359Z,2.33
2023-03-29T17:14:00.207Z,2.78
2023-03-29T17:16:29.833Z,2.47
2023-03-29T17:19:00.748Z,2.92
2023-03-29T17:21:29.316Z,3.13
2023-03-29T17:23:56.542Z,2.50
2023-03-29T17:26:23.786Z,3.42
2023-03-29T17:28:50.903Z,2.42
2023-03-29T17:31:26.569Z,3.22
2023-03-29T17:33:53.677Z,2.70
2023-03-29T17:36:24.250Z,3.10
2023-03-29T17:38:51.835Z,2.75
2023-03-29T17:41:19.321Z,2.88
2023-03-29T17:43:47.894Z,2.63
2023-03-29T17:46:16.626Z,2.90
2023-03-29T17:48:45.328Z,3.05
2023-03-29T17:51:12.407Z,3.25
2023-03-29T17:53:39.622Z,3.00
2023-03-29T17:56:07.540Z,3.47
2023-03-29T17:58:34.508Z,3.53
2023-03-29T18:01:12.455Z,3.08
2023-03-29T18:03:39.650Z,3.58
2023-03-29T18:06:07.090Z,3.75
2023-03-29T18:08:34.948Z,3.28
2023-03-29T18:11:11.727Z,3.97
2023-03-29T18:13:40.044Z,3.92
2023-03-29T18:16:08.562Z,4.03
2023-03-29T18:18:36.371Z,3.60
2023-03-29T18:21:03.766Z,3.70
2023-03-29T18:23:32.340Z,3.63
2023-03-29T18:26:04.170Z,3.08
2023-03-29T18:28:32.787Z,3.63
2023-03-29T18:30:59.793Z,3.90
2023-03-29T18:33:27.282Z,3.50
2023-03-29T18:35:54.228Z,3.47
2023-03-29T18:38:22.752Z,4.13
2023-03-29T18:40:50.757Z,3.75
2023-03-29T18:43:20.856Z,6.95
2023-03-29T18:45:48.734Z,3.60
2023-03-29T18:48:16.082Z,3.40
2023-03-29T18:50:47.076Z,3.80
2023-03-29T18:53:22.243Z,3.75
2023-03-29T18:55:49.159Z,3.30
2023-03-29T18:58:17.930Z,3.28
2023-03-29T19:00:45.109Z,3.80
2023-03-29T19:03:12.219Z,4.22
2023-03-29T19:05:39.992Z,3.40
2023-03-29T19:08:08.559Z,3.10
2023-03-29T19:10:37.829Z,2.90
2023-03-29T19:13:06.381Z,2.67
2023-03-29T19:15:35.580Z,3.03
2023-03-29T19:18:02.951Z,3.75
2023-03-29T19:20:30.226Z,3.30
2023-03-29T19:22:58.512Z,3.70
2023-03-29T19:25:25.687Z,3.15
2023-03-29T19:27:53.015Z,3.60
2023-03-29T19:30:23.323Z,2.97
2023-03-29T19:32:51.633Z,3.05
2023-03-29T19:35:20.042Z,3.75
2023-03-29T19:37:48.289Z,2.80
2023-03-29T19:40:15.649Z,3.00
2023-03-29T19:42:43.007Z,3.45
2023-03-29T19:45:10.854Z,3.58
2023-03-29T19:47:37.865Z,2.92
2023-03-29T19:50:05.688Z,2.80
2023-03-29T19:52:32.937Z,2.35
2023-03-29T19:55:00.196Z,2.55
2023-03-29T19:57:28.454Z,2.55
2023-03-29T19:59:55.734Z,2.45
2023-03-29T20:02:23.059Z,3.20
2023-03-29T20:04:50.182Z,2.10
2023-03-29T20:07:17.164Z,3.08
2023-03-29T20:09:45.387Z,2.60
2023-03-29T20:12:12.596Z,2.30
2023-03-29T20:14:40.663Z,2.47
2023-03-29T20:17:09.514Z,2.40
2023-03-29T20:19:37.305Z,2.38
2023-03-29T20:22:04.973Z,2.40
2023-03-29T20:24:32.793Z,2.15
2023-03-29T20:27:04.553Z,2.53
2023-03-29T20:29:36.691Z,2.35
2023-03-29T20:32:04.188Z,2.13
2023-03-29T20:34:33.300Z,2.10
2023-03-29T20:37:01.053Z,2.15
2023-03-29T20:39:31.666Z,2.33
2023-03-29T20:41:59.161Z,2.53
2023-03-29T20:44:28.494Z,2.58
2023-03-29T20:47:06.817Z,1.77
2023-03-29T20:49:38.493Z,2.67
2023-03-29T20:52:18.129Z,2.33
2023-03-29T20:54:46.999Z,2.88
2023-03-29T20:57:18.934Z,2.92
2023-03-29T20:59:47.240Z,2.42
2023-03-29T21:02:17.329Z,2.45
2023-03-29T21:04:44.856Z,2.30
2023-03-29T21:07:12.130Z,2.40
2023-03-29T21:09:40.220Z,2.10
2023-03-29T21:12:07.397Z,2.15
2023-03-29T21:14:34.353Z,2.03
2023-03-29T21:17:01.714Z,1.70
2023-03-29T21:19:29.134Z,1.33
2023-03-29T21:21:56.211Z,1.42
2023-03-29T21:24:23.367Z,1.77
2023-03-29T21:26:50.472Z,1.40
2023-03-29T21:29:17.477Z,1.40
2023-03-29T21:31:44.497Z,1.60
2023-03-29T21:34:11.516Z,1.45
2023-03-29T21:36:40.100Z,1.55
2023-03-29T21:39:07.028Z,1.30
2023-03-29T21:41:34.392Z,1.92
2023-03-29T21:44:01.419Z,1.80
2023-03-29T21:46:28.562Z,1.70
2023-03-29T21:48:55.683Z,1.60
2023-03-29T21:51:24.265Z,1.75
2023-03-29T21:53:52.608Z,1.95
2023-03-29T21:56:22.765Z,1.33
2023-03-29T21:58:53.010Z,1.60
2023-03-29T22:01:21.845Z,1.83
2023-03-29T22:03:51.037Z,1.20
2023-03-29T22:06:21.472Z,1.80
2023-03-29T22:08:51.157Z,1.83
2023-03-29T22:11:18.666Z,1.60
2023-03-29T22:13:46.362Z,1.73
2023-03-29T22:16:17.413Z,1.77
2023-03-29T22:18:52.784Z,2.00
2023-03-29T22:21:22.669Z,1.60
2023-03-29T22:23:52.415Z,1.27
2023-03-29T22:26:23.322Z,1.33
2023-03-29T22:28:51.313Z,1.45
2023-03-29T22:31:20.862Z,1.50
2023-03-29T22:33:48.799Z,1.77
2023-03-29T22:36:18.996Z,1.27
2023-03-29T22:38:49.168Z,1.55
2023-03-29T22:41:21.489Z,1.90
2023-03-29T22:46:18.280Z,1.60
2023-03-29T22:48:46.223Z,1.70
2023-03-29T22:51:13.344Z,1.63
2023-03-29T22:53:40.856Z,1.83
2023-03-29T22:56:09.332Z,1.80
2023-03-29T22:58:38.013Z,2.05
2023-03-29T23:01:06.684Z,1.60
2023-03-29T23:03:34.229Z,1.63
2023-03-29T23:06:05.105Z,2.72
2023-03-29T23:08:33.843Z,1.40
2023-03-29T23:11:02.193Z,1.60
2023-03-29T23:13:30.006Z,1.77
2023-03-29T23:16:01.817Z,1.77
2023-03-29T23:18:30.354Z,1.90
2023-03-29T23:20:59.077Z,1.60
2023-03-29T23:23:27.240Z,1.60
2023-03-29T23:25:55.974Z,2.17
2023-03-29T23:28:27.234Z,1.70
2023-03-29T23:31:02.822Z,1.88
2023-03-29T23:33:33.624Z,1.70
2023-03-29T23:36:05.817Z,1.60
2023-03-29T23:38:34.537Z,1.52
2023-03-29T23:41:04.117Z,1.50
2023-03-29T23:43:33.885Z,2.10
2023-03-29T23:46:04.027Z,2.03
2023-03-29T23:48:32.397Z,2.33
2023-03-29T23:50:59.337Z,1.48
2023-03-29T23:53:28.840Z,1.60
2023-03-29T23:56:04.043Z,1.70
2023-03-29T23:58:34.492Z,1.80
